Nearby METAR Reports

 

KI68 - Lebanon, Ohio, USA
Distance from station: SW 1mi, 3km
Updated: Thu, 21-Oct-2021 7:15pm EDT
Mostly cloudy
Mostly cloudy
 Wind from WNW
Wind: WNW 14 mph , 22 km/h, Gust: 20 mph , 31 km/h
Temperature: 57°F , 14°C
Dew Point: 46°F , 8°C
Humidity: 67%
Barometer: 29.97 inHg , 1014.9 hPa
Clouds: Mostly cloudy
Visibility: 10 miles , 16 km
Cloud details: Mostly cloudy 3900 ft
2021/10/21 23:15 KI68 212315Z AUTO 30012G17KT 10SM BKN039 14/08 A2997 RMK AO1 T01400075
KLEX - Lexington, Kentucky, USA
Distance from station: SE 25mi, 38km
Updated: Thu, 21-Oct-2021 6:54pm EDT
Clear
Clear
 Wind from WNW
Wind: WNW 12 mph , 19 km/h, Gust: 21 mph , 33 km/h
Temperature: 63°F , 17°C
Dew Point: 46°F , 8°C
Humidity: 56%
Barometer: 29.96 inHg , 1014.6 hPa
Clouds: Clear
Visibility: 10 miles , 16 km
2021/10/21 22:54 KLEX 212254Z 30010G18KT 10SM CLR 17/08 A2996 RMK AO2 SLP140 T01670083
 
KFFT - Frankfort, Kentucky, USA
Distance from station: WNW 24mi, 38km
Updated: Thu, 21-Oct-2021 6:53pm EDT
Clear
Clear
 Wind from WNW
Wind: WNW 8 mph , 13 km/h
Temperature: 64°F , 18°C
Dew Point: 45°F , 7°C
Humidity: 49%
Barometer: 29.97 inHg , 1014.9 hPa
Clouds: Clear
Visibility: 10 miles , 16 km
2021/10/21 22:53 KFFT 212253Z AUTO 29007KT 10SM CLR 18/07 A2997 RMK AO2 SLP144 T01780072
KIOB - Mount Sterling, Kentucky, USA
Distance from station: E 28mi, 46km
Updated: Thu, 21-Oct-2021 7:15pm EDT
Clear
Clear
 Wind from NW
Wind: NW 9 mph , 15 km/h, Gust: 20 mph , 31 km/h
Temperature: 63°F , 17°C
Dew Point: 50°F , 10°C
Humidity: 64%
Barometer: 29.97 inHg , 1014.9 hPa
Clouds: Clear
Visibility: 10 miles , 16 km
2021/10/21 23:15 KIOB 212315Z AUTO 31008G17KT 270V340 10SM CLR 17/10 A2997 RMK AO2 PWINO
 
KDVK - Danville, Kentucky, USA
Distance from station: SSW 35mi, 56km
Updated: Thu, 21-Oct-2021 7:15pm EDT
Clear
Clear
 Wind from NNW
Wind: NNW 7 mph , 11 km/h
Temperature: 63°F , 17°C
Dew Point: 50°F , 10°C
Humidity: 64%
Barometer: 29.98 inHg , 1015.2 hPa
Clouds: Clear
Visibility: 10 miles , 16 km
2021/10/21 23:15 KDVK 212315Z AUTO 33006KT 10SM CLR 17/10 A2998 RMK AO2
K6I2 - Springfield, Kentucky, USA
Distance from station: SW 49mi, 80km
Updated: Thu, 21-Oct-2021 7:15pm EDT
Clear
Clear
 Wind from WNW
Wind: WNW 9 mph , 15 km/h
Temperature: 63°F , 17°C
Dew Point: 50°F , 10°C
Humidity: 64%
Barometer: 29.99 inHg , 1015.6 hPa
Clouds: Clear
Visibility: 10 miles , 16 km
2021/10/21 23:15 K6I2 212315Z AUTO 30008KT 10SM CLR 17/10 A2999 RMK AO2
 
KSYM - Morehead, Kentucky, USA
Distance from station: ENE 51mi, 83km
Updated: Thu, 21-Oct-2021 7:15pm EDT
Clear
Clear
 Wind from WNW
Wind: WNW 10 mph , 17 km/h, Gust: 20 mph , 31 km/h
Temperature: 66°F , 19°C
Dew Point: 50°F , 10°C
Humidity: 56%
Barometer: 29.94 inHg , 1013.9 hPa
Clouds: Clear
Visibility: 10 miles , 16 km
2021/10/21 23:15 KSYM 212315Z AUTO 29009G17KT 260V320 10SM CLR 19/10 A2994 RMK AO2
KFGX - Flemingsburg, Kentucky, USA
Distance from station: NE 54mi, 87km
Updated: Thu, 21-Oct-2021 6:55pm EDT
Partly cloudy
Partly cloudy
 Wind from NW
Wind: NW 12 mph , 19 km/h, Gust: 24 mph , 39 km/h
Temperature: 64°F , 18°C
Dew Point: 48°F , 9°C
Humidity: 56%
Barometer: 29.94 inHg , 1013.9 hPa
Clouds: Partly cloudy
Visibility: 10 miles , 16 km
Cloud details: Partly cloudy 5500 ft
2021/10/21 22:55 KFGX 212255Z AUTO 31010G21KT 10SM SCT055 18/09 A2994 RMK AO2 T01750085
 
KLOU - Louisville/Bowmn, Kentucky, USA
Distance from station: W 64mi, 104km
Updated: Thu, 21-Oct-2021 6:53pm EDT
Clear
Clear
 Wind from WNW
Wind: WNW 12 mph , 19 km/h, Gust: 20 mph , 31 km/h
Temperature: 63°F , 17°C
Dew Point: 45°F , 7°C
Humidity: 52%
Barometer: 29.99 inHg , 1015.6 hPa
Clouds: Clear
Visibility: 10 miles , 16 km
2021/10/21 22:53 KLOU 212253Z 29010G17KT 10SM CLR 17/07 A2999 RMK AO2 SLP151 T01670072
KSDF - Louisville, Kentucky, USA
Distance from station: W 68mi, 109km
Updated: Thu, 21-Oct-2021 6:56pm EDT
Partly cloudy
Partly cloudy
 Wind from WNW
Wind: WNW 13 mph , 20 km/h
Temperature: 64°F , 18°C
Dew Point: 45°F , 7°C
Humidity: 49%
Barometer: 29.99 inHg , 1015.6 hPa
Clouds: Partly cloudy
Visibility: 10 miles , 16 km
Cloud details: Few Clouds 4500 ft
Partly cloudy 20000 ft
2021/10/21 22:56 KSDF 212256Z 30011KT 10SM FEW045 SCT200 18/07 A2999 RMK AO2 SLP152 T01780067
 
KSME - Somerset, Kentucky, USA
Distance from station: S 69mi, 111km
Updated: Thu, 21-Oct-2021 7:15pm EDT
Mostly cloudy
Mostly cloudy
 Wind from SW
Wind: SW 5 mph , 7 km/h
Temperature: 68°F , 20°C
Dew Point: 64°F , 18°C
Humidity: 88%
Barometer: 29.95 inHg , 1014.2 hPa
Clouds: Mostly cloudy
Visibility: 10 miles , 16 km
Cloud details: Few Clouds 1700 ft
Partly cloudy 4600 ft
Mostly cloudy 5500 ft
2021/10/21 23:15 KSME 212315Z AUTO 23004KT 10SM FEW017 SCT046 BKN055 20/18 A2995 RMK AO2
KCVG - Covington, Kentucky, USA
Distance from station: N 70mi, 113km
Updated: Thu, 21-Oct-2021 6:52pm EDT
Mostly cloudy
Mostly cloudy
 Wind from WNW
Wind: WNW 15 mph , 24 km/h
Temperature: 61°F , 16°C
Dew Point: 43°F , 6°C
Humidity: 52%
Barometer: 29.96 inHg , 1014.6 hPa
Clouds: Mostly cloudy
Visibility: 10 miles , 16 km
Cloud details: Few Clouds 4700 ft
Mostly cloudy 25000 ft
2021/10/21 22:52 KCVG 212252Z 30013KT 10SM FEW047 BKN250 16/06 A2996 RMK AO2 SLP139 T01560061
 
KLOZ - London, Kentucky, USA
Distance from station: SSE 70mi, 113km
Updated: Thu, 21-Oct-2021 6:53pm EDT
Few Clouds
Few Clouds
 Wind from SW
Wind: SW 8 mph , 13 km/h
Temperature: 66°F , 19°C
Dew Point: 61°F , 16°C
Humidity: 83%
Barometer: 29.97 inHg , 1014.9 hPa
Clouds: Few Clouds
Visibility: 10 miles , 16 km
Cloud details: Few Clouds 9500 ft
2021/10/21 22:53 KLOZ 212253Z AUTO 23007KT 10SM FEW095 19/16 A2997 RMK AO2 SLP141 T01940161
KJKL - Noctor/Jackson, Kentucky, USA
Distance from station: ESE 72mi, 115km
Updated: Thu, 21-Oct-2021 6:53pm EDT
Clear
Clear
 Wind from SW
Wind: SW 5 mph , 7 km/h
Temperature: 66°F , 19°C
Dew Point: 59°F , 15°C
Humidity: 78%
Barometer: 29.94 inHg , 1013.9 hPa
Clouds: Clear
Visibility: 10 miles , 16 km
2021/10/21 22:53 KJKL 212253Z AUTO 22004KT 10SM CLR 19/15 A2994 RMK AO2 SLP128 T01940150
 
KIMS - Madison, Indiana, USA
Distance from station: NW 72mi, 116km
Updated: Thu, 21-Oct-2021 7:15pm EDT
Clear
Clear
 Wind from WNW
Wind: WNW 9 mph , 15 km/h
Temperature: 55°F , 13°C
Dew Point: 46°F , 8°C
Humidity: 72%
Barometer: 30.02 inHg , 1016.6 hPa
Clouds: Clear
Visibility: 10 miles , 16 km
2021/10/21 23:15 KIMS 212315Z AUTO 30008KT 10SM CLR 13/08 A3002 RMK AO2
KLUK - Cincinnat/Lunken, Ohio, USA
Distance from station: N 73mi, 118km
Updated: Thu, 21-Oct-2021 6:53pm EDT
Clear
Clear
 Wind from NW
Wind: NW 12 mph , 19 km/h, Gust: 21 mph , 33 km/h
Temperature: 63°F , 17°C
Dew Point: 45°F , 7°C
Humidity: 52%
Barometer: 29.96 inHg , 1014.6 hPa
Clouds: Clear
Visibility: 10 miles , 16 km
2021/10/21 22:53 KLUK 212253Z 31010G18KT 10SM CLR 17/07 A2996 RMK AO2 SLP143 T01670072
 
KI69 - Batavia, Ohio, USA
Distance from station: NNE 74mi, 119km
Updated: Thu, 21-Oct-2021 7:15pm EDT
Clear
Clear
 Wind from WNW
Wind: WNW 12 mph , 19 km/h, Gust: 17 mph , 28 km/h
Temperature: 59°F , 15°C
Dew Point: 45°F , 7°C
Humidity: 59%
Barometer: 29.96 inHg , 1014.6 hPa
Clouds: Clear
Visibility: 10 miles , 16 km
2021/10/21 23:15 KI69 212315Z AUTO 29010G15KT 10SM CLR 15/07 A2996 RMK AO2 T01540069